sensor_id;sensor_type;location;lat;lon;timestamp;pressure;altitude;pressure_sealevel;temperature;humidity
39739;BME280;25422;48.286;8.484;2023-06-10T00:01:23;93745.94;;;12.18;100.00
39739;BME280;25422;48.286;8.484;2023-06-10T00:03:52;93749.63;;;12.02;100.00
39739;BME280;25422;48.286;8.484;2023-06-10T00:06:18;93752.09;;;11.89;100.00
39739;BME280;25422;48.286;8.484;2023-06-10T00:08:43;93747.91;;;11.73;100.00
39739;BME280;25422;48.286;8.484;2023-06-10T00:11:08;93747.66;;;11.68;100.00
39739;BME280;25422;48.286;8.484;2023-06-10T00:13:34;93753.06;;;11.66;100.00
39739;BME280;25422;48.286;8.484;2023-06-10T00:15:59;93755.09;;;11.64;100.00
39739;BME280;25422;48.286;8.484;2023-06-10T00:18:25;93755.50;;;11.68;100.00
39739;BME280;25422;48.286;8.484;2023-06-10T00:20:52;93761.66;;;11.75;100.00
39739;BME280;25422;48.286;8.484;2023-06-10T00:23:21;93756.41;;;11.75;100.00
39739;BME280;25422;48.286;8.484;2023-06-10T00:25:46;93744.91;;;11.76;100.00
39739;BME280;25422;48.286;8.484;2023-06-10T00:28:12;93748.59;;;11.81;100.00
39739;BME280;25422;48.286;8.484;2023-06-10T00:30:38;93753.91;;;11.88;100.00
39739;BME280;25422;48.286;8.484;2023-06-10T00:33:04;93756.69;;;11.87;100.00
39739;BME280;25422;48.286;8.484;2023-06-10T00:35:29;93750.91;;;11.91;100.00
39739;BME280;25422;48.286;8.484;2023-06-10T00:37:55;93755.78;;;11.94;100.00
39739;BME280;25422;48.286;8.484;2023-06-10T00:40:20;93748.91;;;11.93;100.00
39739;BME280;25422;48.286;8.484;2023-06-10T00:42:45;93747.84;;;11.88;100.00
39739;BME280;25422;48.286;8.484;2023-06-10T00:45:11;93748.47;;;11.90;100.00
39739;BME280;25422;48.286;8.484;2023-06-10T00:47:36;93738.00;;;11.90;100.00
39739;BME280;25422;48.286;8.484;2023-06-10T00:50:02;93733.75;;;11.89;100.00
39739;BME280;25422;48.286;8.484;2023-06-10T00:52:28;93738.91;;;11.82;100.00
39739;BME280;25422;48.286;8.484;2023-06-10T00:54:55;93732.00;;;11.74;100.00
39739;BME280;25422;48.286;8.484;2023-06-10T00:57:21;93732.19;;;11.73;100.00
39739;BME280;25422;48.286;8.484;2023-06-10T00:59:48;93737.53;;;11.64;100.00
39739;BME280;25422;48.286;8.484;2023-06-10T01:02:14;93735.66;;;11.58;100.00
39739;BME280;25422;48.286;8.484;2023-06-10T01:04:40;93740.56;;;11.61;100.00
39739;BME280;25422;48.286;8.484;2023-06-10T01:07:25;93731.44;;;11.57;100.00
39739;BME280;25422;48.286;8.484;2023-06-10T01:10:04;93731.19;;;11.52;100.00
39739;BME280;25422;48.286;8.484;2023-06-10T01:15:15;93725.50;;;11.48;100.00
39739;BME280;25422;48.286;8.484;2023-06-10T01:17:58;93725.81;;;11.39;100.00
39739;BME280;25422;48.286;8.484;2023-06-10T01:20:25;93726.53;;;11.33;100.00
39739;BME280;25422;48.286;8.484;2023-06-10T01:22:53;93727.75;;;11.30;100.00
39739;BME280;25422;48.286;8.484;2023-06-10T01:25:21;93725.66;;;11.25;100.00
39739;BME280;25422;48.286;8.484;2023-06-10T01:28:04;93729.44;;;11.23;100.00
39739;BME280;25422;48.286;8.484;2023-06-10T01:30:39;93734.41;;;11.18;100.00
39739;BME280;25422;48.286;8.484;2023-06-10T01:33:10;93733.91;;;11.07;100.00
39739;BME280;25422;48.286;8.484;2023-06-10T01:35:38;93732.31;;;10.91;100.00
39739;BME280;25422;48.286;8.484;2023-06-10T01:38:04;93731.59;;;10.83;100.00
39739;BME280;25422;48.286;8.484;2023-06-10T01:40:32;93732.88;;;10.57;100.00
39739;BME280;25422;48.286;8.484;2023-06-10T01:42:57;93734.91;;;10.32;100.00
39739;BME280;25422;48.286;8.484;2023-06-10T01:45:23;93736.69;;;10.16;100.00
39739;BME280;25422;48.286;8.484;2023-06-10T01:47:48;93734.75;;;9.95;100.00
39739;BME280;25422;48.286;8.484;2023-06-10T01:50:14;93729.88;;;9.92;100.00
39739;BME280;25422;48.286;8.484;2023-06-10T01:52:41;93739.38;;;9.85;100.00
39739;BME280;25422;48.286;8.484;2023-06-10T01:55:07;93739.06;;;9.88;100.00
39739;BME280;25422;48.286;8.484;2023-06-10T01:57:32;93743.25;;;9.89;100.00
39739;BME280;25422;48.286;8.484;2023-06-10T01:59:58;93745.56;;;9.92;100.00
39739;BME280;25422;48.286;8.484;2023-06-10T02:02:23;93745.56;;;9.92;100.00
39739;BME280;25422;48.286;8.484;2023-06-10T02:04:50;93750.59;;;9.93;100.00
39739;BME280;25422;48.286;8.484;2023-06-10T02:07:15;93752.72;;;9.90;100.00
39739;BME280;25422;48.286;8.484;2023-06-10T02:09:41;93751.56;;;9.92;100.00
39739;BME280;25422;48.286;8.484;2023-06-10T02:12:07;93758.06;;;9.96;100.00
39739;BME280;25422;48.286;8.484;2023-06-10T02:14:33;93759.34;;;10.01;100.00
39739;BME280;25422;48.286;8.484;2023-06-10T02:16:58;93760.31;;;10.00;100.00
39739;BME280;25422;48.286;8.484;2023-06-10T02:19:24;93760.50;;;9.98;100.00
39739;BME280;25422;48.286;8.484;2023-06-10T02:21:52;93755.28;;;9.98;100.00
39739;BME280;25422;48.286;8.484;2023-06-10T02:24:17;93766.38;;;10.00;100.00
39739;BME280;25422;48.286;8.484;2023-06-10T02:26:43;93762.84;;;9.93;100.00
39739;BME280;25422;48.286;8.484;2023-06-10T02:29:08;93766.91;;;9.95;100.00
39739;BME280;25422;48.286;8.484;2023-06-10T02:31:35;93755.09;;;10.00;100.00
39739;BME280;25422;48.286;8.484;2023-06-10T02:34:02;93758.63;;;9.92;100.00
39739;BME280;25422;48.286;8.484;2023-06-10T02:36:29;93759.59;;;9.91;100.00
39739;BME280;25422;48.286;8.484;2023-06-10T02:38:55;93760.22;;;9.70;100.00
39739;BME280;25422;48.286;8.484;2023-06-10T02:41:21;93765.50;;;9.61;100.00
39739;BME280;25422;48.286;8.484;2023-06-10T02:43:47;93763.06;;;9.60;100.00
39739;BME280;25422;48.286;8.484;2023-06-10T02:46:13;93763.13;;;9.52;100.00
39739;BME280;25422;48.286;8.484;2023-06-10T02:48:41;93761.22;;;9.45;100.00
39739;BME280;25422;48.286;8.484;2023-06-10T02:51:09;93763.00;;;9.45;100.00
39739;BME280;25422;48.286;8.484;2023-06-10T02:53:40;93766.31;;;9.39;100.00
39739;BME280;25422;48.286;8.484;2023-06-10T02:56:09;93769.31;;;9.27;100.00
39739;BME280;25422;48.286;8.484;2023-06-10T02:58:39;93769.19;;;9.21;100.00
39739;BME280;25422;48.286;8.484;2023-06-10T03:01:10;93765.28;;;9.17;100.00
39739;BME280;25422;48.286;8.484;2023-06-10T03:03:46;93771.34;;;9.17;100.00
39739;BME280;25422;48.286;8.484;2023-06-10T03:06:18;93765.09;;;9.18;100.00
39739;BME280;25422;48.286;8.484;2023-06-10T03:08:46;93764.63;;;9.23;100.00
39739;BME280;25422;48.286;8.484;2023-06-10T03:11:17;93763.91;;;9.29;100.00
39739;BME280;25422;48.286;8.484;2023-06-10T03:13:46;93770.31;;;9.26;100.00
39739;BME280;25422;48.286;8.484;2023-06-10T03:16:16;93768.97;;;9.31;100.00
39739;BME280;25422;48.286;8.484;2023-06-10T03:18:43;93768.47;;;9.35;100.00
39739;BME280;25422;48.286;8.484;2023-06-10T03:21:09;93767.47;;;9.36;100.00
39739;BME280;25422;48.286;8.484;2023-06-10T03:23:35;93766.03;;;9.34;100.00
39739;BME280;25422;48.286;8.484;2023-06-10T03:26:07;93768.50;;;9.27;100.00
39739;BME280;25422;48.286;8.484;2023-06-10T03:28:42;93769.53;;;9.18;100.00
39739;BME280;25422;48.286;8.484;2023-06-10T03:31:09;93765.81;;;9.12;100.00
39739;BME280;25422;48.286;8.484;2023-06-10T03:33:45;93773.63;;;9.12;100.00
39739;BME280;25422;48.286;8.484;2023-06-10T03:36:12;93775.91;;;9.15;100.00
39739;BME280;25422;48.286;8.484;2023-06-10T03:38:42;93780.78;;;9.18;100.00
39739;BME280;25422;48.286;8.484;2023-06-10T03:41:10;93775.41;;;9.20;100.00
39739;BME280;25422;48.286;8.484;2023-06-10T03:43:41;93780.78;;;9.18;100.00
39739;BME280;25422;48.286;8.484;2023-06-10T03:46:14;93781.94;;;9.16;100.00
39739;BME280;25422;48.286;8.484;2023-06-10T03:48:42;93785.19;;;9.18;100.00
39739;BME280;25422;48.286;8.484;2023-06-10T03:51:09;93787.41;;;9.29;100.00
39739;BME280;25422;48.286;8.484;2023-06-10T03:53:37;93787.09;;;9.32;100.00
39739;BME280;25422;48.286;8.484;2023-06-10T03:56:06;93776.97;;;9.29;100.00
39739;BME280;25422;48.286;8.484;2023-06-10T03:58:39;93784.97;;;9.27;100.00
39739;BME280;25422;48.286;8.484;2023-06-10T04:01:17;93782.53;;;9.26;100.00
39739;BME280;25422;48.286;8.484;2023-06-10T04:03:59;93798.97;;;9.35;100.00
39739;BME280;25422;48.286;8.484;2023-06-10T04:06:27;93796.59;;;9.48;100.00
39739;BME280;25422;48.286;8.484;2023-06-10T04:08:55;93793.78;;;9.58;100.00
39739;BME280;25422;48.286;8.484;2023-06-10T04:11:24;93791.47;;;9.63;100.00
39739;BME280;25422;48.286;8.484;2023-06-10T04:13:51;93788.97;;;9.70;100.00
39739;BME280;25422;48.286;8.484;2023-06-10T04:16:17;93789.84;;;9.85;100.00
39739;BME280;25422;48.286;8.484;2023-06-10T04:18:46;93792.69;;;9.99;100.00
39739;BME280;25422;48.286;8.484;2023-06-10T04:21:13;93794.72;;;10.11;100.00
39739;BME280;25422;48.286;8.484;2023-06-10T04:23:42;93797.19;;;10.28;100.00
39739;BME280;25422;48.286;8.484;2023-06-10T04:26:09;93797.78;;;10.38;100.00
39739;BME280;25422;48.286;8.484;2023-06-10T04:28:40;93793.94;;;10.49;100.00
39739;BME280;25422;48.286;8.484;2023-06-10T04:31:06;93798.38;;;10.63;100.00
39739;BME280;25422;48.286;8.484;2023-06-10T04:33:34;93799.19;;;10.79;100.00
39739;BME280;25422;48.286;8.484;2023-06-10T04:36:04;93793.75;;;10.95;100.00
39739;BME280;25422;48.286;8.484;2023-06-10T04:38:33;93795.47;;;11.03;100.00
39739;BME280;25422;48.286;8.484;2023-06-10T04:41:00;93810.09;;;11.27;100.00
39739;BME280;25422;48.286;8.484;2023-06-10T04:43:29;93801.31;;;11.35;100.00
39739;BME280;25422;48.286;8.484;2023-06-10T04:45:55;93799.25;;;11.67;100.00
39739;BME280;25422;48.286;8.484;2023-06-10T04:48:21;93803.50;;;12.05;100.00
39739;BME280;25422;48.286;8.484;2023-06-10T04:50:46;93802.91;;;12.31;100.00
39739;BME280;25422;48.286;8.484;2023-06-10T04:53:12;93811.25;;;12.63;100.00
39739;BME280;25422;48.286;8.484;2023-06-10T04:55:40;93806.78;;;12.92;100.00
39739;BME280;25422;48.286;8.484;2023-06-10T04:58:05;93812.22;;;13.25;100.00
39739;BME280;25422;48.286;8.484;2023-06-10T05:00:31;93802.22;;;13.49;100.00
39739;BME280;25422;48.286;8.484;2023-06-10T05:02:56;93812.38;;;13.59;100.00
39739;BME280;25422;48.286;8.484;2023-06-10T05:05:22;93804.78;;;13.91;100.00
39739;BME280;25422;48.286;8.484;2023-06-10T05:07:47;93811.94;;;14.50;100.00
39739;BME280;25422;48.286;8.484;2023-06-10T05:10:13;93808.66;;;15.15;100.00
39739;BME280;25422;48.286;8.484;2023-06-10T05:12:38;93808.22;;;15.71;100.00
39739;BME280;25422;48.286;8.484;2023-06-10T05:15:06;93813.06;;;16.19;100.00
39739;BME280;25422;48.286;8.484;2023-06-10T05:17:31;93815.06;;;16.56;100.00
39739;BME280;25422;48.286;8.484;2023-06-10T05:19:57;93826.59;;;16.36;100.00
39739;BME280;25422;48.286;8.484;2023-06-10T05:22:22;93824.38;;;16.58;100.00
39739;BME280;25422;48.286;8.484;2023-06-10T05:24:50;93820.97;;;16.76;100.00
39739;BME280;25422;48.286;8.484;2023-06-10T05:27:16;93817.94;;;16.79;100.00
39739;BME280;25422;48.286;8.484;2023-06-10T05:29:42;93833.72;;;17.30;100.00
39739;BME280;25422;48.286;8.484;2023-06-10T05:32:07;93829.91;;;17.81;100.00
39739;BME280;25422;48.286;8.484;2023-06-10T05:34:33;93825.25;;;18.80;100.00
39739;BME280;25422;48.286;8.484;2023-06-10T05:36:59;93822.50;;;18.86;100.00
39739;BME280;25422;48.286;8.484;2023-06-10T05:39:25;93825.25;;;20.03;99.01
39739;BME280;25422;48.286;8.484;2023-06-10T05:41:50;93822.94;;;20.07;88.09
39739;BME280;25422;48.286;8.484;2023-06-10T05:44:16;93833.38;;;21.79;76.32
39739;BME280;25422;48.286;8.484;2023-06-10T05:46:41;93824.66;;;22.93;65.54
39739;BME280;25422;48.286;8.484;2023-06-10T05:49:07;93829.50;;;23.86;57.62
39739;BME280;25422;48.286;8.484;2023-06-10T05:51:32;93826.69;;;24.14;54.71
39739;BME280;25422;48.286;8.484;2023-06-10T05:53:57;93827.03;;;24.43;52.52
39739;BME280;25422;48.286;8.484;2023-06-10T05:56:23;93833.00;;;24.81;50.73
39739;BME280;25422;48.286;8.484;2023-06-10T05:58:49;93834.03;;;25.27;48.69
39739;BME280;25422;48.286;8.484;2023-06-10T06:01:14;93829.69;;;24.33;49.78
39739;BME280;25422;48.286;8.484;2023-06-10T06:03:40;93828.19;;;24.88;48.16
39739;BME280;25422;48.286;8.484;2023-06-10T06:06:06;93836.28;;;24.04;49.04
39739;BME280;25422;48.286;8.484;2023-06-10T06:08:31;93823.34;;;23.81;49.84
39739;BME280;25422;48.286;8.484;2023-06-10T06:10:57;93827.47;;;23.56;51.75
39739;BME280;25422;48.286;8.484;2023-06-10T06:13:23;93830.22;;;23.18;52.63
39739;BME280;25422;48.286;8.484;2023-06-10T06:15:48;93830.09;;;23.46;52.44
39739;BME280;25422;48.286;8.484;2023-06-10T06:18:14;93826.50;;;23.24;52.41
39739;BME280;25422;48.286;8.484;2023-06-10T06:20:40;93828.19;;;23.41;52.64
39739;BME280;25422;48.286;8.484;2023-06-10T06:23:06;93825.66;;;24.30;49.90
39739;BME280;25422;48.286;8.484;2023-06-10T06:25:35;93830.41;;;24.07;50.87
39739;BME280;25422;48.286;8.484;2023-06-10T06:28:01;93829.22;;;25.23;47.69
39739;BME280;25422;48.286;8.484;2023-06-10T06:30:26;93837.97;;;25.81;46.76
39739;BME280;25422;48.286;8.484;2023-06-10T06:32:53;93836.56;;;25.93;45.23
39739;BME280;25422;48.286;8.484;2023-06-10T06:35:18;93832.97;;;24.91;46.15
39739;BME280;25422;48.286;8.484;2023-06-10T06:37:44;93833.97;;;24.39;47.95
39739;BME280;25422;48.286;8.484;2023-06-10T06:40:18;93831.38;;;24.96;46.07
39739;BME280;25422;48.286;8.484;2023-06-10T06:42:45;93828.72;;;24.85;46.55
39739;BME280;25422;48.286;8.484;2023-06-10T06:45:16;93841.81;;;24.77;47.82
39739;BME280;25422;48.286;8.484;2023-06-10T06:47:42;93833.75;;;25.23;45.99
39739;BME280;25422;48.286;8.484;2023-06-10T06:50:09;93838.19;;;26.05;44.33
39739;BME280;25422;48.286;8.484;2023-06-10T06:52:35;93835.06;;;27.17;41.67
39739;BME280;25422;48.286;8.484;2023-06-10T06:55:01;93837.22;;;26.80;41.96
39739;BME280;25422;48.286;8.484;2023-06-10T06:57:27;93834.94;;;26.58;42.42
39739;BME280;25422;48.286;8.484;2023-06-10T06:59:53;93839.03;;;26.45;42.62
39739;BME280;25422;48.286;8.484;2023-06-10T07:02:19;93839.28;;;25.88;43.66
39739;BME280;25422;48.286;8.484;2023-06-10T07:04:47;93844.22;;;26.31;43.23
39739;BME280;25422;48.286;8.484;2023-06-10T07:07:15;93840.72;;;25.45;44.29
39739;BME280;25422;48.286;8.484;2023-06-10T07:09:41;93844.22;;;24.73;46.62
39739;BME280;25422;48.286;8.484;2023-06-10T07:12:07;93841.25;;;25.31;45.50
39739;BME280;25422;48.286;8.484;2023-06-10T07:14:33;93839.38;;;26.38;43.23
39739;BME280;25422;48.286;8.484;2023-06-10T07:17:01;93843.66;;;25.53;44.14
39739;BME280;25422;48.286;8.484;2023-06-10T07:19:29;93843.91;;;26.38;42.23
39739;BME280;25422;48.286;8.484;2023-06-10T07:21:57;93846.16;;;26.65;42.18
39739;BME280;25422;48.286;8.484;2023-06-10T07:24:22;93843.59;;;26.45;41.81
39739;BME280;25422;48.286;8.484;2023-06-10T07:26:50;93843.44;;;25.39;44.38
39739;BME280;25422;48.286;8.484;2023-06-10T07:29:17;93839.94;;;25.34;44.16
39739;BME280;25422;48.286;8.484;2023-06-10T07:31:43;93835.06;;;25.62;44.20
39739;BME280;25422;48.286;8.484;2023-06-10T07:34:09;93830.38;;;26.58;42.43
39739;BME280;25422;48.286;8.484;2023-06-10T07:36:34;93844.78;;;26.78;41.98
39739;BME280;25422;48.286;8.484;2023-06-10T07:39:00;93846.53;;;25.83;44.05
39739;BME280;25422;48.286;8.484;2023-06-10T07:41:25;93840.28;;;26.63;41.81
39739;BME280;25422;48.286;8.484;2023-06-10T07:43:53;93847.91;;;26.46;42.30
39739;BME280;25422;48.286;8.484;2023-06-10T07:46:23;93836.00;;;26.62;41.95
39739;BME280;25422;48.286;8.484;2023-06-10T07:48:48;93848.53;;;25.36;44.62
39739;BME280;25422;48.286;8.484;2023-06-10T07:51:15;93847.19;;;25.44;45.06
39739;BME280;25422;48.286;8.484;2023-06-10T07:53:40;93850.22;;;25.97;44.59
39739;BME280;25422;48.286;8.484;2023-06-10T07:56:06;93848.84;;;26.65;42.96
39739;BME280;25422;48.286;8.484;2023-06-10T07:58:31;93850.16;;;26.78;41.60
39739;BME280;25422;48.286;8.484;2023-06-10T08:00:57;93853.69;;;27.08;40.46
39739;BME280;25422;48.286;8.484;2023-06-10T08:03:22;93860.94;;;26.13;42.80
39739;BME280;25422;48.286;8.484;2023-06-10T08:05:48;93854.44;;;26.24;43.89
39739;BME280;25422;48.286;8.484;2023-06-10T08:08:16;93858.59;;;25.80;43.81
39739;BME280;25422;48.286;8.484;2023-06-10T08:10:44;93854.13;;;26.36;43.39
39739;BME280;25422;48.286;8.484;2023-06-10T08:13:10;93868.53;;;26.45;42.86
39739;BME280;25422;48.286;8.484;2023-06-10T08:15:36;93863.13;;;25.95;44.25
39739;BME280;25422;48.286;8.484;2023-06-10T08:18:01;93864.69;;;26.17;43.31
39739;BME280;25422;48.286;8.484;2023-06-10T08:20:27;93857.72;;;26.11;44.29
39739;BME280;25422;48.286;8.484;2023-06-10T08:22:53;93851.28;;;26.17;43.61
39739;BME280;25422;48.286;8.484;2023-06-10T08:25:19;93858.34;;;25.77;44.24
39739;BME280;25422;48.286;8.484;2023-06-10T08:27:46;93864.03;;;26.35;44.47
39739;BME280;25422;48.286;8.484;2023-06-10T08:30:12;93858.66;;;26.40;43.77
39739;BME280;25422;48.286;8.484;2023-06-10T08:32:38;93843.03;;;27.27;42.58
39739;BME280;25422;48.286;8.484;2023-06-10T08:35:04;93845.22;;;27.54;42.03
39739;BME280;25422;48.286;8.484;2023-06-10T08:37:29;93845.41;;;27.34;42.02
39739;BME280;25422;48.286;8.484;2023-06-10T08:39:55;93843.03;;;28.10;40.22
39739;BME280;25422;48.286;8.484;2023-06-10T08:42:33;93854.22;;;26.60;42.70
39739;BME280;25422;48.286;8.484;2023-06-10T08:45:01;93849.81;;;27.19;42.71
39739;BME280;25422;48.286;8.484;2023-06-10T08:47:29;93848.50;;;26.82;42.98
39739;BME280;25422;48.286;8.484;2023-06-10T08:49:56;93851.63;;;25.84;44.54
39739;BME280;25422;48.286;8.484;2023-06-10T08:52:29;93843.91;;;26.88;42.73
39739;BME280;25422;48.286;8.484;2023-06-10T08:55:03;93842.00;;;27.82;41.72
39739;BME280;25422;48.286;8.484;2023-06-10T08:57:30;93853.13;;;27.70;40.84
39739;BME280;25422;48.286;8.484;2023-06-10T08:59:57;93849.91;;;27.43;41.67
39739;BME280;25422;48.286;8.484;2023-06-10T09:02:24;93844.38;;;27.30;41.51
39739;BME280;25422;48.286;8.484;2023-06-10T09:04:50;93847.19;;;26.80;43.31
39739;BME280;25422;48.286;8.484;2023-06-10T09:07:16;93840.78;;;27.93;41.33
39739;BME280;25422;48.286;8.484;2023-06-10T09:09:45;93840.22;;;27.13;41.51
39739;BME280;25422;48.286;8.484;2023-06-10T09:12:14;93843.81;;;26.03;43.72
39739;BME280;25422;48.286;8.484;2023-06-10T09:14:43;93839.31;;;25.68;45.04
39739;BME280;25422;48.286;8.484;2023-06-10T09:17:09;93836.25;;;26.66;42.97
39739;BME280;25422;48.286;8.484;2023-06-10T09:19:37;93839.06;;;27.19;41.62
39739;BME280;25422;48.286;8.484;2023-06-10T09:22:05;93849.25;;;26.43;43.00
39739;BME280;25422;48.286;8.484;2023-06-10T09:24:32;93833.28;;;26.67;42.39
39739;BME280;25422;48.286;8.484;2023-06-10T09:27:08;93841.38;;;27.02;41.45
39739;BME280;25422;48.286;8.484;2023-06-10T09:30:01;93837.38;;;28.12;39.40
39739;BME280;25422;48.286;8.484;2023-06-10T09:32:31;93839.78;;;29.27;38.68
39739;BME280;25422;48.286;8.484;2023-06-10T09:34:57;93841.44;;;29.23;37.40
39739;BME280;25422;48.286;8.484;2023-06-10T09:37:24;93841.41;;;28.90;38.57
39739;BME280;25422;48.286;8.484;2023-06-10T09:40:03;93829.44;;;28.01;37.95
39739;BME280;25422;48.286;8.484;2023-06-10T09:42:33;93820.75;;;28.29;38.61
39739;BME280;25422;48.286;8.484;2023-06-10T09:44:59;93837.88;;;28.57;38.66
39739;BME280;25422;48.286;8.484;2023-06-10T09:47:25;93823.41;;;28.72;38.21
39739;BME280;25422;48.286;8.484;2023-06-10T09:49:50;93830.72;;;29.37;37.15
39739;BME280;25422;48.286;8.484;2023-06-10T09:52:23;93831.47;;;28.91;37.35
39739;BME280;25422;48.286;8.484;2023-06-10T09:54:50;93829.25;;;29.45;36.68
39739;BME280;25422;48.286;8.484;2023-06-10T09:57:16;93831.66;;;29.47;36.89
39739;BME280;25422;48.286;8.484;2023-06-10T09:59:42;93835.19;;;28.76;37.87
39739;BME280;25422;48.286;8.484;2023-06-10T10:02:13;93835.38;;;28.99;37.41
39739;BME280;25422;48.286;8.484;2023-06-10T10:04:39;93825.59;;;28.07;38.21
39739;BME280;25422;48.286;8.484;2023-06-10T10:07:04;93825.00;;;27.62;40.61
39739;BME280;25422;48.286;8.484;2023-06-10T10:09:30;93833.84;;;28.35;38.72
39739;BME280;25422;48.286;8.484;2023-06-10T10:11:57;93832.13;;;28.01;38.67
39739;BME280;25422;48.286;8.484;2023-06-10T10:14:23;93829.22;;;27.92;37.73
39739;BME280;25422;48.286;8.484;2023-06-10T10:16:51;93832.41;;;29.33;36.13
39739;BME280;25422;48.286;8.484;2023-06-10T10:19:23;93840.81;;;28.55;36.69
39739;BME280;25422;48.286;8.484;2023-06-10T10:21:54;93839.91;;;28.84;36.70
39739;BME280;25422;48.286;8.484;2023-06-10T10:24:26;93825.91;;;27.76;38.86
39739;BME280;25422;48.286;8.484;2023-06-10T10:26:58;93827.13;;;29.28;36.97
39739;BME280;25422;48.286;8.484;2023-06-10T10:29:30;93828.97;;;29.60;36.47
39739;BME280;25422;48.286;8.484;2023-06-10T10:31:59;93826.13;;;29.05;38.34
39739;BME280;25422;48.286;8.484;2023-06-10T10:37:12;93828.44;;;27.92;40.33
39739;BME280;25422;48.286;8.484;2023-06-10T10:39:38;93827.25;;;28.85;36.73
39739;BME280;25422;48.286;8.484;2023-06-10T10:42:04;93836.91;;;28.48;38.01
39739;BME280;25422;48.286;8.484;2023-06-10T10:44:31;93836.03;;;28.90;37.10
39739;BME280;25422;48.286;8.484;2023-06-10T10:47:02;93830.47;;;28.87;38.18
39739;BME280;25422;48.286;8.484;2023-06-10T10:49:30;93831.00;;;28.46;38.85
39739;BME280;25422;48.286;8.484;2023-06-10T10:52:00;93826.31;;;28.75;39.48
39739;BME280;25422;48.286;8.484;2023-06-10T10:54:36;93821.81;;;28.71;38.58
39739;BME280;25422;48.286;8.484;2023-06-10T10:59:44;93814.41;;;29.62;35.23
39739;BME280;25422;48.286;8.484;2023-06-10T11:02:10;93820.06;;;29.46;36.85
39739;BME280;25422;48.286;8.484;2023-06-10T11:04:45;93822.28;;;28.35;36.64
39739;BME280;25422;48.286;8.484;2023-06-10T11:07:11;93822.41;;;29.81;34.46
39739;BME280;25422;48.286;8.484;2023-06-10T11:09:57;93827.28;;;29.65;35.06
39739;BME280;25422;48.286;8.484;2023-06-10T11:12:23;93815.53;;;29.88;34.75
39739;BME280;25422;48.286;8.484;2023-06-10T11:14:58;93820.13;;;29.27;35.69
39739;BME280;25422;48.286;8.484;2023-06-10T11:17:24;93813.63;;;28.95;35.27
39739;BME280;25422;48.286;8.484;2023-06-10T11:19:49;93815.03;;;28.35;37.60
39739;BME280;25422;48.286;8.484;2023-06-10T11:22:17;93819.66;;;27.86;38.03
39739;BME280;25422;48.286;8.484;2023-06-10T11:24:50;93806.66;;;27.93;39.03
39739;BME280;25422;48.286;8.484;2023-06-10T11:27:22;93815.91;;;30.09;35.88
39739;BME280;25422;48.286;8.484;2023-06-10T11:32:32;93801.25;;;30.66;34.02
39739;BME280;25422;48.286;8.484;2023-06-10T11:34:58;93809.56;;;31.47;31.84
39739;BME280;25422;48.286;8.484;2023-06-10T11:37:24;93816.22;;;30.08;35.16
39739;BME280;25422;48.286;8.484;2023-06-10T11:39:56;93815.31;;;29.71;35.70
39739;BME280;25422;48.286;8.484;2023-06-10T11:42:22;93820.59;;;28.20;37.05
39739;BME280;25422;48.286;8.484;2023-06-10T11:44:49;93813.22;;;27.29;38.64
39739;BME280;25422;48.286;8.484;2023-06-10T11:47:15;93813.75;;;26.62;39.96
39739;BME280;25422;48.286;8.484;2023-06-10T11:49:41;93810.28;;;27.25;39.91
39739;BME280;25422;48.286;8.484;2023-06-10T11:52:06;93813.72;;;27.60;38.93
39739;BME280;25422;48.286;8.484;2023-06-10T11:54:32;93808.16;;;28.43;38.82
39739;BME280;25422;48.286;8.484;2023-06-10T11:56:58;93816.22;;;28.00;37.99
39739;BME280;25422;48.286;8.484;2023-06-10T11:59:29;93813.53;;;28.00;37.98
39739;BME280;25422;48.286;8.484;2023-06-10T12:01:54;93808.75;;;28.40;37.19
39739;BME280;25422;48.286;8.484;2023-06-10T12:04:20;93800.88;;;28.68;36.65
39739;BME280;25422;48.286;8.484;2023-06-10T12:06:51;93813.00;;;28.46;37.92
39739;BME280;25422;48.286;8.484;2023-06-10T12:11:48;93802.09;;;30.53;34.15
39739;BME280;25422;48.286;8.484;2023-06-10T12:14:14;93804.63;;;29.80;34.83
39739;BME280;25422;48.286;8.484;2023-06-10T12:16:39;93804.41;;;28.82;35.77
39739;BME280;25422;48.286;8.484;2023-06-10T12:19:05;93802.94;;;29.98;35.21
39739;BME280;25422;48.286;8.484;2023-06-10T12:21:32;93802.94;;;29.98;34.78
39739;BME280;25422;48.286;8.484;2023-06-10T12:24:07;93799.09;;;29.43;34.88
39739;BME280;25422;48.286;8.484;2023-06-10T12:26:44;93789.72;;;30.97;33.41
39739;BME280;25422;48.286;8.484;2023-06-10T12:29:19;93802.16;;;30.84;33.35
39739;BME280;25422;48.286;8.484;2023-06-10T12:31:56;93789.63;;;30.66;33.03
39739;BME280;25422;48.286;8.484;2023-06-10T12:34:34;93787.94;;;31.38;32.43
39739;BME280;25422;48.286;8.484;2023-06-10T12:37:04;93800.34;;;29.92;32.53
39739;BME280;25422;48.286;8.484;2023-06-10T12:39:31;93799.38;;;30.53;32.25
39739;BME280;25422;48.286;8.484;2023-06-10T12:41:57;93791.81;;;29.43;33.75
39739;BME280;25422;48.286;8.484;2023-06-10T12:44:32;93795.97;;;28.51;35.54
39739;BME280;25422;48.286;8.484;2023-06-10T12:46:58;93802.75;;;28.67;34.62
39739;BME280;25422;48.286;8.484;2023-06-10T12:49:24;93789.44;;;28.76;33.54
39739;BME280;25422;48.286;8.484;2023-06-10T12:51:51;93789.16;;;30.64;32.30
39739;BME280;25422;48.286;8.484;2023-06-10T12:54:17;93800.09;;;30.44;31.31
39739;BME280;25422;48.286;8.484;2023-06-10T12:56:42;93791.41;;;30.48;30.67
39739;BME280;25422;48.286;8.484;2023-06-10T12:59:08;93791.06;;;30.63;30.82
39739;BME280;25422;48.286;8.484;2023-06-10T13:01:34;93786.03;;;31.16;32.43
39739;BME280;25422;48.286;8.484;2023-06-10T13:03:59;93790.06;;;29.20;33.86
39739;BME280;25422;48.286;8.484;2023-06-10T13:06:25;93780.13;;;28.49;36.22
39739;BME280;25422;48.286;8.484;2023-06-10T13:08:50;93786.84;;;29.18;34.86
39739;BME280;25422;48.286;8.484;2023-06-10T13:11:16;93793.75;;;29.24;34.69
39739;BME280;25422;48.286;8.484;2023-06-10T13:13:41;93786.56;;;28.10;35.89